Time;durP1;ratioP1;P1;durP2;ratioP2;P2;SDS_P1;SDS_P2;PMS_P1;PMS_P2;Temp;Humidity;BMP_temperature;BMP_pressure;BME280_temperature;BME280_humidity;BME280_pressure;Samples;Min_cycle;Max_cycle;Signal;HPM_P1;HPM_P2
2023/04/09 00:01:11;;;;;;;23.43;19.00;;;12.20;99.90;;;;;;5017242;28;20488;-80
2023/04/09 00:03:40;;;;;;;26.03;19.93;;;12.20;99.90;;;;;;5021309;28;20828;-80
2023/04/09 00:06:06;;;;;;;26.43;19.47;;;12.20;99.90;;;;;;5034537;28;20443;-81
2023/04/09 00:08:34;;;;;;;22.80;17.93;;;12.10;99.90;;;;;;5055837;28;20422;-81
2023/04/09 00:11:00;;;;;;;27.53;19.77;;;12.10;99.90;;;;;;5020625;28;20847;-80
2023/04/09 00:13:29;;;;;;;23.53;18.93;;;12.20;99.90;;;;;;5038000;28;20425;-81
2023/04/09 00:15:55;;;;;;;24.23;18.93;;;12.20;99.90;;;;;;5004401;28;20806;-81
2023/04/09 00:18:20;;;;;;;24.80;19.03;;;12.20;99.90;;;;;;5037885;28;20433;-81
2023/04/09 00:20:46;;;;;;;22.57;18.33;;;12.10;99.90;;;;;;5004207;28;20625;-80
2023/04/09 00:23:15;;;;;;;25.83;18.40;;;12.10;99.90;;;;;;5026472;28;20582;-80
2023/04/09 00:25:41;;;;;;;27.70;20.73;;;12.10;99.90;;;;;;5036791;28;20463;-81
2023/04/09 00:28:07;;;;;;;23.83;18.60;;;12.10;99.90;;;;;;5037882;28;20271;-80
2023/04/09 00:30:35;;;;;;;23.60;17.70;;;12.10;99.90;;;;;;5003959;28;20525;-80
2023/04/09 00:33:01;;;;;;;25.30;19.47;;;12.10;99.90;;;;;;5004496;28;20515;-80
2023/04/09 00:35:30;;;;;;;26.27;19.30;;;12.10;99.90;;;;;;5020007;28;20467;-80
2023/04/09 00:37:55;;;;;;;27.40;20.10;;;12.10;99.90;;;;;;5037231;28;20768;-81
2023/04/09 00:40:21;;;;;;;28.03;20.77;;;12.10;99.90;;;;;;5003882;28;20555;-81
2023/04/09 00:42:50;;;;;;;27.60;18.43;;;12.00;99.90;;;;;;5019960;28;20488;-81
2023/04/09 00:45:16;;;;;;;25.63;18.40;;;12.10;99.90;;;;;;5020053;28;20748;-81
2023/04/09 00:47:44;;;;;;;29.33;20.23;;;12.00;99.90;;;;;;5019630;28;20437;-81
2023/04/09 00:50:12;;;;;;;27.77;20.00;;;12.00;99.90;;;;;;5003568;28;20436;-81
2023/04/09 00:52:38;;;;;;;25.87;18.90;;;12.00;99.90;;;;;;5044139;28;20478;-81
2023/04/09 00:55:05;;;;;;;24.67;18.70;;;12.00;99.90;;;;;;5024297;28;20456;-80
2023/04/09 00:57:31;;;;;;;29.03;19.70;;;12.00;99.90;;;;;;5012401;28;20422;-81
2023/04/09 00:59:57;;;;;;;25.63;18.47;;;12.00;99.90;;;;;;5037084;28;20541;-81
2023/04/09 01:02:23;;;;;;;28.53;19.80;;;12.00;99.90;;;;;;5019903;28;20415;-81
2023/04/09 01:04:50;;;;;;;25.83;19.47;;;12.00;99.90;;;;;;5025467;28;20460;-80
2023/04/09 01:07:37;;;;;;;28.00;19.73;;;12.00;99.90;;;;;;5053806;28;20423;-80
2023/04/09 01:10:08;;;;;;;24.87;19.87;;;12.00;99.90;;;;;;5020576;28;20527;-81
2023/04/09 01:12:57;;;;;;;26.57;18.93;;;12.00;99.90;;;;;;5000127;28;20436;-80
2023/04/09 01:15:35;;;;;;;27.00;19.70;;;12.00;99.90;;;;;;5023615;28;20879;-81
2023/04/09 01:18:20;;;;;;;25.90;19.63;;;12.00;99.90;;;;;;5016128;28;20417;-80
2023/04/09 01:20:57;;;;;;;25.47;19.87;;;11.90;99.90;;;;;;5011015;28;20442;-80
2023/04/09 01:23:58;;;;;;;26.80;18.73;;;11.90;99.90;;;;;;4999703;28;20521;-81
2023/04/09 01:27:01;;;;;;;25.90;18.40;;;11.90;99.90;;;;;;5015705;28;20400;-80
2023/04/09 01:29:50;;;;;;;27.70;19.73;;;11.90;99.90;;;;;;4993639;28;20466;-81
2023/04/09 01:32:19;;;;;;;23.37;17.10;;;11.90;99.90;;;;;;5023538;28;20494;-81
2023/04/09 01:34:50;;;;;;;26.10;18.20;;;11.90;99.90;;;;;;5019627;28;20534;-81
2023/04/09 01:37:22;;;;;;;29.60;20.57;;;11.80;99.90;;;;;;5036691;28;20425;-80
2023/04/09 01:39:56;;;;;;;25.67;20.00;;;11.80;99.90;;;;;;5019717;28;20454;-79
2023/04/09 01:42:22;;;;;;;24.97;19.47;;;11.80;99.90;;;;;;5019042;28;20932;-81
2023/04/09 01:44:52;;;;;;;25.13;18.33;;;11.80;99.90;;;;;;5018933;28;20434;-81
2023/04/09 01:47:23;;;;;;;28.77;20.47;;;11.80;99.90;;;;;;5035720;28;20447;-80
2023/04/09 01:49:50;;;;;;;25.67;19.37;;;11.80;99.90;;;;;;5036076;28;20760;-81
2023/04/09 01:52:18;;;;;;;25.33;19.60;;;11.80;99.90;;;;;;5018427;28;20963;-81
2023/04/09 01:54:46;;;;;;;25.73;18.90;;;11.80;99.90;;;;;;5018765;28;20439;-80
2023/04/09 01:57:14;;;;;;;26.67;19.97;;;11.80;99.90;;;;;;5018840;28;20420;-81
2023/04/09 01:59:40;;;;;;;26.40;18.40;;;11.70;99.90;;;;;;5035048;28;20471;-81
2023/04/09 02:02:19;;;;;;;23.33;17.90;;;11.80;99.90;;;;;;5034821;28;20436;-81
2023/04/09 02:04:48;;;;;;;24.80;17.83;;;11.80;99.90;;;;;;5021141;28;20422;-80
2023/04/09 02:07:25;;;;;;;23.10;17.67;;;11.80;99.90;;;;;;5034265;28;20424;-80
2023/04/09 02:09:53;;;;;;;26.73;18.60;;;11.70;99.90;;;;;;5018778;28;20432;-81
2023/04/09 02:12:20;;;;;;;26.93;18.90;;;11.70;99.90;;;;;;5018349;28;20542;-80
2023/04/09 02:14:52;;;;;;;28.30;19.90;;;11.70;99.90;;;;;;5002181;28;20517;-81
2023/04/09 02:17:19;;;;;;;24.50;18.90;;;11.70;99.90;;;;;;5018327;28;20457;-80
2023/04/09 02:19:46;;;;;;;27.87;18.83;;;11.70;99.90;;;;;;5018147;28;20463;-81
2023/04/09 02:22:16;;;;;;;27.87;19.17;;;11.70;99.90;;;;;;5018332;28;20448;-81
2023/04/09 02:24:44;;;;;;;24.73;19.13;;;11.70;99.90;;;;;;5034163;28;20419;-80
2023/04/09 02:27:10;;;;;;;23.93;18.07;;;11.60;99.90;;;;;;5034188;28;20433;-80
2023/04/09 02:29:40;;;;;;;26.70;20.47;;;11.70;99.90;;;;;;5034570;28;20542;-80
2023/04/09 02:32:06;;;;;;;22.73;17.83;;;11.70;99.90;;;;;;5035422;28;20806;-80
2023/04/09 02:34:32;;;;;;;25.60;17.97;;;11.60;99.90;;;;;;5019255;28;20435;-81
2023/04/09 02:36:58;;;;;;;25.10;17.90;;;11.60;99.90;;;;;;5001433;28;20438;-80
2023/04/09 02:39:24;;;;;;;22.93;18.33;;;11.60;99.90;;;;;;5020234;28;20464;-80
2023/04/09 02:41:51;;;;;;;25.53;18.93;;;11.60;99.90;;;;;;5017800;28;20205;-81
2023/04/09 02:44:19;;;;;;;24.70;18.67;;;11.60;99.90;;;;;;5017833;28;20418;-80
2023/04/09 02:46:53;;;;;;;28.20;19.77;;;11.60;99.90;;;;;;5017783;28;20459;-80
2023/04/09 02:49:19;;;;;;;23.30;17.50;;;11.60;99.90;;;;;;5021376;28;20523;-80
2023/04/09 02:51:47;;;;;;;24.47;18.17;;;11.60;99.90;;;;;;5017529;28;20986;-81
2023/04/09 02:54:13;;;;;;;25.80;19.13;;;11.60;99.90;;;;;;5007905;28;20453;-81
2023/04/09 02:56:39;;;;;;;27.13;18.70;;;11.60;99.90;;;;;;5052612;28;20426;-81
2023/04/09 02:59:07;;;;;;;28.40;18.97;;;11.50;99.90;;;;;;5000928;28;20573;-80
2023/04/09 03:01:34;;;;;;;29.33;19.40;;;11.50;99.90;;;;;;5019466;28;20753;-80
2023/04/09 03:04:02;;;;;;;24.50;18.87;;;11.50;99.90;;;;;;5021387;28;20416;-81
2023/04/09 03:06:30;;;;;;;23.73;17.63;;;11.50;99.90;;;;;;5001556;28;20661;-80
2023/04/09 03:08:59;;;;;;;27.67;18.70;;;11.50;99.90;;;;;;5035376;28;20546;-80
2023/04/09 03:11:24;;;;;;;25.73;19.33;;;11.50;99.90;;;;;;5004372;28;20487;-80
2023/04/09 03:13:52;;;;;;;28.13;20.03;;;11.50;99.90;;;;;;5018711;28;20438;-80
2023/04/09 03:16:18;;;;;;;25.70;17.83;;;11.50;99.90;;;;;;5000923;28;20233;-81
2023/04/09 03:18:48;;;;;;;27.40;20.20;;;11.50;99.90;;;;;;5017435;28;20476;-80
2023/04/09 03:21:18;;;;;;;22.83;17.90;;;11.50;99.90;;;;;;5012743;28;20424;-80
2023/04/09 03:23:47;;;;;;;28.57;18.80;;;11.40;99.90;;;;;;5020473;28;20442;-80
2023/04/09 03:26:13;;;;;;;26.43;19.97;;;11.40;99.90;;;;;;5011775;28;20443;-81
2023/04/09 03:28:56;;;;;;;25.07;19.10;;;11.40;99.90;;;;;;5016936;28;20809;-80
2023/04/09 03:31:22;;;;;;;24.87;18.17;;;11.40;99.90;;;;;;5000992;28;20422;-80
2023/04/09 03:33:52;;;;;;;21.03;17.03;;;11.40;99.90;;;;;;5017708;28;20269;-80
2023/04/09 03:36:20;;;;;;;22.70;17.10;;;11.40;99.90;;;;;;5030058;28;20448;-81
2023/04/09 03:39:02;;;;;;;22.63;16.70;;;11.40;99.90;;;;;;5023344;28;20952;-81
2023/04/09 03:41:37;;;;;;;22.87;16.00;;;11.30;99.90;;;;;;5018531;28;20443;-81
2023/04/09 03:44:07;;;;;;;25.37;17.40;;;11.40;99.90;;;;;;5000390;28;20495;-80
2023/04/09 03:46:43;;;;;;;22.23;16.27;;;11.30;99.90;;;;;;5000815;28;20419;-80
2023/04/09 03:49:13;;;;;;;25.83;19.63;;;11.30;99.90;;;;;;5000491;28;20502;-80
2023/04/09 03:51:44;;;;;;;22.00;16.87;;;11.30;99.90;;;;;;5013345;28;20456;-80
2023/04/09 03:54:12;;;;;;;24.17;18.90;;;11.30;99.90;;;;;;5029361;28;20461;-80
2023/04/09 03:56:39;;;;;;;21.23;16.83;;;11.30;99.90;;;;;;5037078;28;20804;-81
2023/04/09 03:59:10;;;;;;;21.87;18.07;;;11.30;99.90;;;;;;5044413;28;20485;-81
2023/04/09 04:01:39;;;;;;;23.70;17.80;;;11.30;99.90;;;;;;5016862;28;20419;-81
2023/04/09 04:04:07;;;;;;;23.80;17.07;;;11.30;99.90;;;;;;5017010;28;20430;-80
2023/04/09 04:06:42;;;;;;;26.37;19.20;;;11.20;99.90;;;;;;5034277;28;20748;-80
2023/04/09 04:09:25;;;;;;;21.17;17.00;;;11.20;99.90;;;;;;5016085;28;20878;-80
2023/04/09 04:12:01;;;;;;;21.73;16.40;;;11.20;99.90;;;;;;5032782;28;20507;-80
2023/04/09 04:14:52;;;;;;;22.77;17.13;;;11.20;99.90;;;;;;4997552;28;20417;-80
2023/04/09 04:17:28;;;;;;;22.70;16.50;;;11.20;99.90;;;;;;5030828;28;20462;-81
2023/04/09 04:19:56;;;;;;;22.03;16.97;;;11.20;99.90;;;;;;5016702;28;20962;-79
2023/04/09 04:22:22;;;;;;;24.57;17.53;;;11.20;99.90;;;;;;5006237;28;20463;-81
2023/04/09 04:24:51;;;;;;;25.20;17.23;;;11.20;99.90;;;;;;5020324;28;20752;-81
2023/04/09 04:27:22;;;;;;;22.63;16.90;;;11.20;99.90;;;;;;5016654;28;20484;-80
2023/04/09 04:29:48;;;;;;;25.03;17.40;;;11.10;99.90;;;;;;5019395;28;20459;-80
2023/04/09 04:32:32;;;;;;;21.97;16.07;;;11.10;99.90;;;;;;5003434;28;20920;-81
2023/04/09 04:35:02;;;;;;;26.20;17.90;;;11.10;99.90;;;;;;5020656;28;20490;-81
2023/04/09 04:37:28;;;;;;;23.20;17.50;;;11.10;99.90;;;;;;5020145;28;20425;-80
2023/04/09 04:40:04;;;;;;;25.57;18.13;;;11.10;99.90;;;;;;5020903;28;20485;-80
2023/04/09 04:42:37;;;;;;;22.83;16.93;;;11.10;99.90;;;;;;5035949;28;20419;-80
2023/04/09 04:45:09;;;;;;;26.43;17.73;;;11.10;99.90;;;;;;5020388;28;20407;-80
2023/04/09 04:47:43;;;;;;;23.47;17.10;;;11.00;99.90;;;;;;5021479;28;20399;-81
2023/04/09 04:50:15;;;;;;;20.57;16.20;;;11.00;99.90;;;;;;5037403;28;20509;-80
2023/04/09 04:53:07;;;;;;;24.60;16.70;;;11.00;99.90;;;;;;5021322;28;20443;-81
2023/04/09 04:55:42;;;;;;;24.20;17.73;;;11.00;99.90;;;;;;5020043;28;20713;-80
2023/04/09 04:58:12;;;;;;;21.93;16.97;;;11.00;99.90;;;;;;5003776;28;20456;-80
2023/04/09 05:00:45;;;;;;;25.50;16.80;;;11.00;99.90;;;;;;5019944;28;20453;-81
2023/04/09 05:03:12;;;;;;;27.60;19.03;;;11.00;99.90;;;;;;5020013;28;20751;-80
2023/04/09 05:05:52;;;;;;;27.03;18.13;;;11.00;99.90;;;;;;5024125;28;20436;-81
2023/04/09 05:08:22;;;;;;;24.40;18.90;;;11.00;99.90;;;;;;5019662;28;20950;-81
2023/04/09 05:10:54;;;;;;;23.83;17.27;;;10.90;99.90;;;;;;5016686;28;20433;-81
2023/04/09 05:13:26;;;;;;;25.20;18.40;;;10.90;99.90;;;;;;5000039;28;20427;-80
2023/04/09 05:15:55;;;;;;;25.33;17.57;;;10.90;99.90;;;;;;5041227;28;20451;-81
2023/04/09 05:18:23;;;;;;;23.03;17.50;;;10.90;99.90;;;;;;5036387;28;20420;-80
2023/04/09 05:20:51;;;;;;;25.97;17.40;;;10.90;99.90;;;;;;5019425;28;20451;-80
2023/04/09 05:23:17;;;;;;;27.50;17.90;;;10.90;99.90;;;;;;5032665;28;20437;-81
2023/04/09 05:25:54;;;;;;;23.73;18.13;;;10.90;99.90;;;;;;5025858;28;20513;-81
2023/04/09 05:28:35;;;;;;;22.47;17.97;;;10.90;99.90;;;;;;5016231;28;20432;-81
2023/04/09 05:31:11;;;;;;;27.67;17.37;;;10.90;99.90;;;;;;5029322;28;20504;-80
2023/04/09 05:33:45;;;;;;;25.40;18.10;;;10.80;99.90;;;;;;5001935;28;20613;-81
2023/04/09 05:36:20;;;;;;;24.23;17.20;;;10.80;99.90;;;;;;5023734;28;20913;-80
2023/04/09 05:38:48;;;;;;;24.10;17.87;;;10.80;99.90;;;;;;5019659;28;20477;-81
2023/04/09 05:41:15;;;;;;;25.77;17.27;;;10.80;99.90;;;;;;5002906;28;20490;-81
2023/04/09 05:43:52;;;;;;;23.33;18.33;;;10.80;99.90;;;;;;5036348;28;20412;-81
2023/04/09 05:46:18;;;;;;;24.23;17.67;;;10.80;99.90;;;;;;5008203;28;20443;-81
2023/04/09 05:48:47;;;;;;;24.50;16.83;;;10.80;99.90;;;;;;5055483;28;20918;-81
2023/04/09 05:51:14;;;;;;;20.43;16.60;;;10.70;99.90;;;;;;5025608;28;20194;-81
2023/04/09 05:53:41;;;;;;;31.17;19.10;;;10.70;99.90;;;;;;5029122;28;20419;-81
2023/04/09 05:56:14;;;;;;;27.33;19.63;;;10.70;99.90;;;;;;5018898;28;20453;-80
2023/04/09 05:58:47;;;;;;;23.90;17.47;;;10.70;99.90;;;;;;5002528;28;20503;-81
2023/04/09 06:01:13;;;;;;;25.40;17.70;;;10.70;99.90;;;;;;5022432;28;20469;-81
2023/04/09 06:03:39;;;;;;;24.70;17.10;;;10.70;99.90;;;;;;5016952;28;20454;-81
2023/04/09 06:06:07;;;;;;;25.70;18.43;;;10.70;99.90;;;;;;5035233;28;20949;-81
2023/04/09 06:08:35;;;;;;;26.20;17.93;;;10.70;99.90;;;;;;5035315;28;20440;-81
2023/04/09 06:11:03;;;;;;;28.70;18.67;;;10.70;99.90;;;;;;5018491;28;20451;-82
2023/04/09 06:13:29;;;;;;;26.23;18.30;;;10.70;99.90;;;;;;5007713;28;20449;-80
2023/04/09 06:15:55;;;;;;;24.93;18.20;;;10.70;99.90;;;;;;5003436;28;20425;-81
2023/04/09 06:18:21;;;;;;;26.03;18.83;;;10.70;99.90;;;;;;5017377;28;20444;-81
2023/04/09 06:20:49;;;;;;;22.03;16.67;;;10.70;99.90;;;;;;5036164;28;20666;-85
2023/04/09 06:23:15;;;;;;;24.43;18.33;;;10.60;99.90;;;;;;5035344;28;20189;-86
2023/04/09 06:25:41;;;;;;;24.17;17.70;;;10.60;99.90;;;;;;5018335;28;20782;-85
2023/04/09 06:28:09;;;;;;;24.90;19.40;;;10.70;99.90;;;;;;5034669;28;20428;-85
2023/04/09 06:30:35;;;;;;;22.20;17.70;;;10.60;99.90;;;;;;5002654;28;20479;-86
2023/04/09 06:33:03;;;;;;;22.50;17.43;;;10.60;99.90;;;;;;5001972;28;20432;-85
2023/04/09 06:35:29;;;;;;;26.40;19.27;;;10.60;99.90;;;;;;5018552;28;20432;-85
2023/04/09 06:38:00;;;;;;;22.90;17.43;;;10.60;99.90;;;;;;5018978;28;20928;-85
2023/04/09 06:40:26;;;;;;;27.83;18.20;;;10.60;99.90;;;;;;5017945;28;20795;-85
2023/04/09 06:42:56;;;;;;;22.77;17.60;;;10.60;99.90;;;;;;5018245;28;20433;-86
2023/04/09 06:45:29;;;;;;;23.87;17.63;;;10.60;99.90;;;;;;5017647;28;20516;-85
2023/04/09 06:47:55;;;;;;;24.03;18.20;;;10.60;99.90;;;;;;5001825;28;20424;-86
2023/04/09 06:50:21;;;;;;;25.90;16.80;;;10.60;99.90;;;;;;5018488;28;20869;-85
2023/04/09 06:52:47;;;;;;;23.77;17.17;;;10.60;99.90;;;;;;5017478;28;20180;-85
2023/04/09 06:55:13;;;;;;;23.50;17.63;;;10.60;99.90;;;;;;5001883;28;20463;-85
2023/04/09 06:57:39;;;;;;;22.63;16.97;;;10.60;99.90;;;;;;5018159;28;20177;-85
2023/04/09 07:00:06;;;;;;;19.87;15.73;;;10.60;99.90;;;;;;5017793;28;20784;-85
2023/04/09 07:02:37;;;;;;;18.73;15.60;;;10.60;99.90;;;;;;5001805;28;20553;-86
2023/04/09 07:05:04;;;;;;;23.33;16.27;;;10.60;99.90;;;;;;5018064;28;20515;-86
2023/04/09 07:07:31;;;;;;;23.47;17.00;;;10.60;99.90;;;;;;5034015;28;20435;-85
2023/04/09 07:09:57;;;;;;;21.30;15.40;;;10.70;99.90;;;;;;5034135;28;20436;-85
2023/04/09 07:12:31;;;;;;;20.17;15.60;;;10.70;99.90;;;;;;5001363;28;20888;-86
2023/04/09 07:15:01;;;;;;;19.00;15.13;;;10.70;99.90;;;;;;4997977;28;20451;-88
2023/04/09 07:17:28;;;;;;;22.30;15.63;;;10.70;99.90;;;;;;5014587;28;20814;-88
2023/04/09 07:19:56;;;;;;;21.67;14.03;;;10.70;99.90;;;;;;5037201;28;20465;-87
2023/04/09 07:22:29;;;;;;;18.67;15.30;;;10.70;99.90;;;;;;5054200;28;20405;-88
2023/04/09 07:24:56;;;;;;;17.90;14.33;;;10.70;99.90;;;;;;5037484;28;20691;-87
2023/04/09 07:27:26;;;;;;;16.90;14.07;;;10.70;99.90;;;;;;5018861;28;20415;-87
2023/04/09 07:29:57;;;;;;;17.90;13.83;;;10.80;99.90;;;;;;5017480;28;20448;-86
2023/04/09 07:32:24;;;;;;;19.40;13.03;;;10.70;99.90;;;;;;5017581;28;20501;-87
2023/04/09 07:34:51;;;;;;;18.33;13.57;;;10.80;99.90;;;;;;4984951;28;20459;-87
2023/04/09 07:37:22;;;;;;;18.80;13.13;;;10.80;99.90;;;;;;5001409;28;20497;-87
2023/04/09 07:39:50;;;;;;;19.63;13.70;;;10.80;99.90;;;;;;5014150;28;20472;-87
2023/04/09 07:42:18;;;;;;;18.60;13.10;;;10.80;99.90;;;;;;4997584;28;20425;-87
2023/04/09 07:44:44;;;;;;;16.43;12.60;;;10.80;99.90;;;;;;4997810;28;20429;-87
2023/04/09 07:47:11;;;;;;;16.83;13.50;;;10.80;99.90;;;;;;4997887;28;20577;-88
2023/04/09 07:49:37;;;;;;;16.70;12.37;;;10.80;99.90;;;;;;4981786;28;20524;-87
2023/04/09 07:52:04;;;;;;;16.13;12.37;;;10.80;99.90;;;;;;5013695;28;20431;-87
2023/04/09 07:54:31;;;;;;;15.57;11.63;;;10.80;99.90;;;;;;5001896;28;20471;-87
2023/04/09 07:56:57;;;;;;;16.03;12.10;;;10.90;99.90;;;;;;5037094;28;20485;-87
2023/04/09 07:59:24;;;;;;;15.80;11.77;;;10.90;99.90;;;;;;5020578;28;20483;-88
2023/04/09 08:01:49;;;;;;;13.40;11.07;;;10.90;99.90;;;;;;5020614;28;20529;-86
2023/04/09 08:04:16;;;;;;;15.23;11.67;;;10.90;99.90;;;;;;5019214;28;20511;-87
2023/04/09 08:06:45;;;;;;;15.77;10.70;;;10.90;99.90;;;;;;5037452;28;20457;-88
2023/04/09 08:09:11;;;;;;;13.30;10.93;;;10.90;99.90;;;;;;5021169;28;20436;-88
2023/04/09 08:12:06;;;;;;;13.93;10.60;;;10.90;99.90;;;;;;5004797;28;20431;-90
2023/04/09 08:14:36;;;;;;;11.20;9.20;;;11.00;99.90;;;;;;5005076;28;20210;-89
2023/04/09 08:17:03;;;;;;;14.13;9.90;;;11.00;99.90;;;;;;5004709;28;20435;-89
2023/04/09 08:19:32;;;;;;;12.47;9.80;;;11.00;99.90;;;;;;5005037;28;20554;-87
2023/04/09 08:21:58;;;;;;;10.73;8.50;;;11.00;99.90;;;;;;5021111;28;20411;-89
2023/04/09 08:24:27;;;;;;;13.87;9.50;;;11.10;99.90;;;;;;5020722;28;20214;-87
2023/04/09 08:26:53;;;;;;;14.23;10.10;;;11.10;99.90;;;;;;5017329;28;20471;-86
2023/04/09 08:29:19;;;;;;;16.70;9.80;;;11.10;99.90;;;;;;5018115;28;20221;-87
2023/04/09 08:31:45;;;;;;;11.53;8.60;;;11.20;99.90;;;;;;5000870;28;20538;-87
2023/04/09 08:34:11;;;;;;;11.83;9.23;;;11.20;99.90;;;;;;5001236;28;20531;-88
2023/04/09 08:36:40;;;;;;;10.57;8.77;;;11.30;99.90;;;;;;4997145;28;20492;-88
2023/04/09 08:39:06;;;;;;;9.70;8.17;;;11.30;99.90;;;;;;5020222;28;20469;-87
2023/04/09 08:41:40;;;;;;;13.03;8.87;;;11.30;99.90;;;;;;5020771;28;20782;-87
2023/04/09 08:44:06;;;;;;;11.03;8.97;;;11.40;99.90;;;;;;5036714;28;20440;-85
2023/04/09 08:46:37;;;;;;;9.93;7.93;;;11.40;99.90;;;;;;5020208;28;20445;-88
2023/04/09 08:49:03;;;;;;;11.17;8.10;;;11.50;99.90;;;;;;5036652;28;20416;-86
2023/04/09 08:51:32;;;;;;;9.97;7.60;;;11.50;99.90;;;;;;5020175;28;20526;-87
2023/04/09 08:53:59;;;;;;;10.70;7.53;;;11.50;99.90;;;;;;5027554;28;20609;-88
2023/04/09 08:56:28;;;;;;;11.23;7.50;;;11.60;99.90;;;;;;5031715;28;20438;-89
2023/04/09 08:58:58;;;;;;;8.37;7.50;;;11.70;99.90;;;;;;5035004;28;20475;-88
2023/04/09 09:01:29;;;;;;;8.03;7.17;;;11.70;99.90;;;;;;5035336;28;20956;-88
2023/04/09 09:04:07;;;;;;;9.50;7.40;;;11.70;99.90;;;;;;4999943;28;20429;-88
2023/04/09 09:06:34;;;;;;;9.37;7.40;;;11.80;99.90;;;;;;5012649;28;20452;-87
2023/04/09 09:09:15;;;;;;;7.93;6.60;;;11.80;99.90;;;;;;5004329;28;20423;-89
2023/04/09 09:11:47;;;;;;;8.63;6.60;;;11.80;99.90;;;;;;5020044;28;20472;-89
2023/04/09 09:14:22;;;;;;;7.57;6.10;;;11.90;99.90;;;;;;5010615;28;20440;-87
2023/04/09 09:21:27;;;;;;;8.53;6.60;;;12.00;99.90;;;;;;5033514;28;20417;-88
2023/04/09 09:23:53;;;;;;;8.17;6.63;;;12.00;99.90;;;;;;5000525;28;20440;-86
2023/04/09 09:26:26;;;;;;;10.57;6.30;;;12.00;99.90;;;;;;5016874;28;20425;-86
2023/04/09 09:28:57;;;;;;;9.67;6.70;;;12.10;99.90;;;;;;5000644;28;20737;-87
2023/04/09 09:31:27;;;;;;;7.73;5.90;;;12.10;99.90;;;;;;5001668;28;20788;-88
2023/04/09 09:33:54;;;;;;;6.53;5.90;;;12.10;99.90;;;;;;5022325;28;20537;-88
2023/04/09 09:36:34;;;;;;;7.93;6.30;;;12.20;99.90;;;;;;5027607;28;20423;-85
2023/04/09 09:39:08;;;;;;;7.70;5.93;;;12.20;99.90;;;;;;5003209;28;20470;-86
2023/04/09 09:41:35;;;;;;;8.17;6.33;;;12.20;99.90;;;;;;5020724;28;20419;-85
2023/04/09 09:44:03;;;;;;;7.70;6.57;;;12.30;99.90;;;;;;5039362;28;20746;-86
2023/04/09 09:46:35;;;;;;;6.87;6.03;;;12.30;99.90;;;;;;5056069;28;20406;-85
2023/04/09 09:49:01;;;;;;;6.70;5.47;;;12.30;99.90;;;;;;5022882;28;20884;-85
2023/04/09 09:51:33;;;;;;;7.13;5.40;;;12.30;99.90;;;;;;5039161;28;20835;-85
2023/04/09 09:54:00;;;;;;;7.37;6.30;;;12.40;99.90;;;;;;5019040;28;20430;-84
2023/04/09 09:56:37;;;;;;;6.63;5.50;;;12.40;99.80;;;;;;5019290;28;20506;-85
2023/04/09 09:59:20;;;;;;;6.33;5.20;;;12.40;99.80;;;;;;5003096;28;20590;-85
2023/04/09 10:01:50;;;;;;;6.97;5.63;;;12.40;99.90;;;;;;5035521;28;20464;-86
2023/04/09 10:04:20;;;;;;;7.10;5.47;;;12.50;99.90;;;;;;5003002;28;20450;-85
2023/04/09 10:06:47;;;;;;;8.00;6.20;;;12.50;99.90;;;;;;5019148;28;20816;-86
2023/04/09 10:09:14;;;;;;;5.77;5.03;;;12.60;99.90;;;;;;5035839;28;20423;-86
2023/04/09 10:11:42;;;;;;;7.97;5.93;;;12.60;99.90;;;;;;5052060;28;20872;-86
2023/04/09 10:14:09;;;;;;;6.33;5.10;;;12.70;99.90;;;;;;5018933;28;20445;-85
2023/04/09 10:16:35;;;;;;;6.40;4.80;;;12.70;99.70;;;;;;5008230;28;20954;-86
2023/04/09 10:19:02;;;;;;;7.70;5.67;;;12.70;99.60;;;;;;5018496;28;20457;-86
2023/04/09 10:21:49;;;;;;;5.80;4.93;;;12.70;99.60;;;;;;4999103;28;20965;-86
2023/04/09 10:24:18;;;;;;;5.90;5.03;;;12.80;99.50;;;;;;4999899;28;20552;-88
2023/04/09 10:26:44;;;;;;;7.80;4.80;;;12.80;99.70;;;;;;4998318;28;20471;-89
2023/04/09 10:29:15;;;;;;;5.57;4.80;;;12.90;99.50;;;;;;5015752;28;20487;-89
2023/04/09 10:31:52;;;;;;;6.50;5.00;;;12.90;99.50;;;;;;4986178;28;20432;-88
2023/04/09 10:34:25;;;;;;;5.60;5.00;;;12.90;99.80;;;;;;5002507;28;20427;-87
2023/04/09 10:36:58;;;;;;;5.90;4.83;;;13.00;99.40;;;;;;5024495;28;20442;-88
2023/04/09 10:39:30;;;;;;;6.00;5.13;;;13.00;99.30;;;;;;5022437;28;20957;-89
2023/04/09 10:42:06;;;;;;;6.00;4.80;;;13.00;99.20;;;;;;4999036;28;20897;-86
2023/04/09 10:44:34;;;;;;;6.27;5.10;;;13.00;99.10;;;;;;5009534;28;20773;-87
2023/04/09 10:47:02;;;;;;;6.20;4.30;;;13.10;98.60;;;;;;5018394;28;20415;-87
2023/04/09 10:49:38;;;;;;;5.83;4.20;;;13.10;97.90;;;;;;5001979;28;20570;-86
2023/04/09 10:52:12;;;;;;;5.80;4.80;;;13.20;97.70;;;;;;5004857;28;20456;-86
2023/04/09 10:54:49;;;;;;;4.93;4.43;;;13.20;97.60;;;;;;5003821;28;20931;-85
2023/04/09 10:57:17;;;;;;;6.60;4.60;;;13.30;97.90;;;;;;4998509;28;20423;-86
2023/04/09 10:59:51;;;;;;;6.93;5.20;;;13.30;97.90;;;;;;5015600;28;20530;-86
2023/04/09 11:02:38;;;;;;;5.37;4.87;;;13.30;98.00;;;;;;5014860;28;20422;-86
2023/04/09 11:05:16;;;;;;;6.10;4.10;;;13.40;98.10;;;;;;5014726;28;20403;-85
2023/04/09 11:08:04;;;;;;;6.47;4.70;;;13.40;98.00;;;;;;5014519;28;20451;-86
2023/04/09 11:10:31;;;;;;;9.40;5.40;;;13.40;98.00;;;;;;4998625;28;20481;-90
2023/04/09 11:12:57;;;;;;;12.70;5.50;;;13.50;96.80;;;;;;5009300;28;20553;-91
2023/04/09 11:15:23;;;;;;;7.33;5.37;;;13.50;94.00;;;;;;5010289;28;20437;-90
2023/04/09 11:17:49;;;;;;;8.27;5.70;;;13.70;92.60;;;;;;5038510;28;20439;-90
2023/04/09 11:20:25;;;;;;;11.23;6.27;;;13.80;91.60;;;;;;5021718;28;20934;-90
2023/04/09 11:22:53;;;;;;;8.83;6.17;;;13.90;92.00;;;;;;5021333;28;20478;-90
2023/04/09 11:25:25;;;;;;;7.37;5.23;;;14.00;91.10;;;;;;5038329;28;20429;-89
2023/04/09 11:27:54;;;;;;;5.33;4.80;;;14.10;90.70;;;;;;5038055;28;20476;-90
2023/04/09 11:30:20;;;;;;;6.93;5.37;;;14.30;94.00;;;;;;5038315;28;20485;-90
2023/04/09 11:32:48;;;;;;;8.43;5.80;;;14.40;93.40;;;;;;5004908;28;20449;-90
2023/04/09 11:35:16;;;;;;;6.70;5.47;;;14.50;92.50;;;;;;5037983;28;20432;-91
2023/04/09 11:37:45;;;;;;;6.80;5.97;;;14.60;92.50;;;;;;5021406;28;20469;-90
2023/04/09 11:40:18;;;;;;;6.43;5.20;;;14.60;92.90;;;;;;5021417;28;20514;-89
2023/04/09 11:42:44;;;;;;;5.77;4.90;;;14.70;93.10;;;;;;5021665;28;20416;-91
2023/04/09 11:45:11;;;;;;;7.00;6.00;;;14.70;93.30;;;;;;5038081;28;20426;-88
2023/04/09 11:47:42;;;;;;;7.90;5.93;;;14.70;93.20;;;;;;5055326;28;20469;-90
2023/04/09 11:50:10;;;;;;;7.30;5.87;;;14.80;93.60;;;;;;5037792;28;20437;-90
2023/04/09 11:52:37;;;;;;;7.50;6.00;;;14.80;93.70;;;;;;5037716;28;20434;-90
2023/04/09 11:55:04;;;;;;;6.87;5.70;;;14.90;96.50;;;;;;5020815;28;20455;-90
2023/04/09 11:57:40;;;;;;;6.83;5.30;;;15.00;94.60;;;;;;5037896;28;20426;-91
2023/04/09 12:00:11;;;;;;;7.63;5.50;;;15.00;93.40;;;;;;5037863;28;20769;-90
2023/04/09 12:02:47;;;;;;;5.60;4.90;;;15.10;92.20;;;;;;5018771;28;20430;-90
2023/04/09 12:05:33;;;;;;;5.87;5.27;;;15.20;90.80;;;;;;5021418;28;20430;-90
2023/04/09 12:08:06;;;;;;;5.77;4.93;;;15.20;88.50;;;;;;5037746;28;20454;-90
2023/04/09 12:10:37;;;;;;;7.03;5.67;;;15.30;87.80;;;;;;5021426;28;20791;-90
2023/04/09 12:13:06;;;;;;;7.40;5.83;;;15.30;87.30;;;;;;5037716;28;20430;-89
2023/04/09 12:15:33;;;;;;;7.57;5.33;;;15.20;87.10;;;;;;5037576;28;20450;-90
2023/04/09 12:18:00;;;;;;;7.43;5.70;;;15.20;89.00;;;;;;5018653;28;20518;-89
2023/04/09 12:20:38;;;;;;;6.53;5.70;;;15.30;89.30;;;;;;5017448;28;20461;-89
2023/04/09 12:23:07;;;;;;;7.03;5.13;;;15.40;90.10;;;;;;5017984;28;20447;-90
2023/04/09 12:25:38;;;;;;;8.20;5.63;;;15.50;88.80;;;;;;5034014;28;20413;-89
2023/04/09 12:28:05;;;;;;;5.63;4.80;;;15.70;85.30;;;;;;5017553;28;20475;-89
2023/04/09 12:30:32;;;;;;;6.07;5.43;;;15.70;84.50;;;;;;5017556;28;20765;-87
2023/04/09 12:32:58;;;;;;;10.80;6.27;;;15.80;82.20;;;;;;5017525;28;20831;-90
2023/04/09 12:35:24;;;;;;;7.87;5.73;;;15.80;80.50;;;;;;5020298;28;20467;-90
2023/04/09 12:37:50;;;;;;;5.70;5.07;;;15.70;80.50;;;;;;5007859;28;20808;-90
2023/04/09 12:40:18;;;;;;;7.17;6.10;;;15.80;81.30;;;;;;5018327;28;20841;-90
2023/04/09 12:42:45;;;;;;;7.13;5.67;;;15.70;81.10;;;;;;5035440;28;20514;-89
2023/04/09 12:45:13;;;;;;;6.50;5.80;;;15.70;81.50;;;;;;5003190;28;20498;-90
2023/04/09 12:47:41;;;;;;;6.57;5.70;;;15.70;81.80;;;;;;4997451;28;20443;-89
2023/04/09 12:50:09;;;;;;;5.87;5.27;;;15.70;81.90;;;;;;4999423;28;20454;-91
2023/04/09 12:52:37;;;;;;;6.10;5.30;;;15.70;81.20;;;;;;5020157;28;20456;-88